Riverside, Missouri
Current Conditions -  °F | °C
As of 7:54 AM on Friday 28 Nov 2014 (Local Time) from KMKC Reporting Station
Clear Clear  
Wind Chill: 31°   Ceiling: Unl
Heat Index: 38°   Visibility: 10mi
Dew Point: 25°   Wind: 10mph
Humidity: 60%   Direction: 210°SSW
Pressure: 30.01"   Gusts: NA
Location:  39.18°N, 94.61°W
Report Text: KMKC 281354Z AUTO 21009KT 10SM CLR 03/M04 A3001 RMK AO2 SLP168 T00331039
Loading
Personal Weather Stations






























Interactive Weather Map New forecast layout! Learn more

10-Day Weather Forecast

Advertisements
Track Severe Weather on mobile